Time;durP1;ratioP1;P1;durP2;ratioP2;P2;SDS_P1;SDS_P2;PMS_P1;PMS_P2;Temp;Humidity;BMP_temperature;BMP_pressure;BME280_temperature;BME280_humidity;BME280_pressure;Samples;Min_cycle;Max_cycle;Signal;HPM_P1;HPM_P2
2022/02/28 00:00:58;;;;;;;0.00;0.00;;;;;;;2.83;85.61;99237.00;5372290;24;20121;-81
2022/02/28 00:03:24;;;;;;;0.00;0.00;;;;;;;2.81;85.53;99232.97;4827562;29;20113;-80
2022/02/28 00:05:49;;;;;;;0.00;0.00;;;;;;;2.84;85.52;99232.50;4818529;29;20039;-80
2022/02/28 00:24:06;;;;;;;0.00;0.00;;;;;;;2.71;86.23;99226.34;4812751;29;20091;-82
2022/02/28 00:27:03;;;;;;;0.00;0.00;;;;;;;2.74;86.32;99227.75;4815960;29;20065;-82
2022/02/28 00:33:23;;;;;;;0.00;0.00;;;;;;;2.73;85.68;99223.47;4823895;29;20062;-88
2022/02/28 00:43:00;;;;;;;0.00;0.00;;;;;;;2.68;86.31;99226.78;4853247;29;20077;-82
2022/02/28 01:54:00;;;;;;;0.00;0.00;;;;;;;2.68;86.28;99202.22;5642138;24;20114;-81
2022/02/28 01:56:29;;;;;;;0.00;0.00;;;;;;;2.75;86.19;99192.38;4815031;29;20096;-80
2022/02/28 02:45:46;;;;;;;0.00;0.00;;;;;;;2.38;88.27;99173.88;5115846;24;20518;-80
2022/02/28 02:48:32;;;;;;;0.00;0.00;;;;;;;2.41;88.19;99181.38;4823647;29;20037;-79
2022/02/28 02:53:53;;;;;;;0.00;0.00;;;;;;;2.44;87.73;99180.13;4881507;24;20054;-81
2022/02/28 02:56:32;;;;;;;0.00;0.00;;;;;;;2.40;87.82;99177.13;4816869;29;20058;-81
2022/02/28 02:59:12;;;;;;;0.00;0.00;;;;;;;2.44;87.93;99173.03;4830212;29;20050;-81
2022/02/28 03:01:38;;;;;;;0.00;0.00;;;;;;;2.47;87.73;99179.69;4839099;29;20064;-80
2022/02/28 03:07:27;;;;;;;0.00;0.00;;;;;;;2.52;87.55;99177.19;4846502;29;20554;-80
2022/02/28 03:12:59;;;;;;;0.00;0.00;;;;;;;2.52;87.25;99164.00;4991140;23;20082;-80
2022/02/28 03:15:24;;;;;;;;;;;;;;;2.53;87.58;99165.63;4827739;29;20546;-79
2022/02/28 03:18:08;;;;;;;0.00;0.00;;;;;;;2.53;87.22;99169.06;4829401;29;19960;-80
2022/02/28 03:20:49;;;;;;;0.00;0.00;;;;;;;2.52;87.20;99170.06;4830239;29;20038;-80
2022/02/28 03:23:15;;;;;;;0.00;0.00;;;;;;;2.52;87.31;99164.00;4830844;29;20511;-80
2022/02/28 04:02:32;;;;;;;0.00;0.00;;;;;;;2.79;86.03;99166.34;4814453;29;20041;-82
2022/02/28 04:09:05;;;;;;;;;;;;;;;2.72;85.90;99172.50;4807669;29;20473;-78
2022/02/28 04:12:08;;;;;;;0.20;0.20;;;;;;;2.80;85.68;99173.25;4794166;29;19921;-80
2022/02/28 04:35:44;;;;;;;0.00;0.00;;;;;;;2.79;85.72;99177.69;5896834;23;20876;31
2022/02/28 05:13:03;;;;;;;0.00;0.00;;;;;;;3.13;84.05;99217.72;4807233;29;20074;-81
2022/02/28 05:30:18;;;;;;;0.00;0.00;;;;;;;3.23;83.32;99246.28;5205150;24;20095;-81
2022/02/28 05:32:44;;;;;;;0.00;0.00;;;;;;;3.22;83.32;99252.59;4921220;24;20057;-81
2022/02/28 05:35:47;;;;;;;0.00;0.00;;;;;;;3.22;83.25;99247.31;4827480;29;20113;-81
2022/02/28 05:38:13;;;;;;;0.00;0.00;;;;;;;3.29;83.49;99252.53;4831740;29;20057;-78
2022/02/28 06:06:43;;;;;;;0.00;0.00;;;;;;;3.57;81.81;99277.59;4898493;24;20268;-82
2022/02/28 06:39:25;;;;;;;0.63;0.40;;;;;;;3.95;80.24;99287.81;5377287;23;20057;-78
2022/02/28 06:41:51;;;;;;;0.30;0.30;;;;;;;3.85;80.59;99295.50;4820372;29;20049;-78
2022/02/28 06:44:17;;;;;;;0.00;0.00;;;;;;;3.82;81.07;99295.94;4829601;29;20033;-78
2022/02/28 06:46:42;;;;;;;0.00;0.00;;;;;;;3.74;80.88;99299.72;4849301;29;20034;-79
2022/02/28 06:49:08;;;;;;;0.00;0.00;;;;;;;3.76;80.36;99294.19;4829888;29;20483;-78
2022/02/28 06:51:33;;;;;;;0.00;0.00;;;;;;;3.68;80.20;99306.72;4846948;29;20033;-79
2022/02/28 06:53:59;;;;;;;0.00;0.00;;;;;;;3.66;80.63;99311.44;4828699;29;20041;-80
2022/02/28 06:56:24;;;;;;;0.00;0.00;;;;;;;3.71;80.49;99326.63;4812888;29;20043;-80
2022/02/28 06:58:49;;;;;;;0.00;0.00;;;;;;;3.75;80.95;99327.78;4819962;29;20399;-80
2022/02/28 07:01:15;;;;;;;0.00;0.00;;;;;;;3.81;80.62;99329.53;4836446;29;20039;-80
2022/02/28 07:03:40;;;;;;;0.10;0.10;;;;;;;3.89;80.64;99327.63;4830179;29;20517;-79
2022/02/28 07:06:06;;;;;;;0.00;0.00;;;;;;;3.91;80.62;99329.00;4829238;29;20038;-79
2022/02/28 07:08:33;;;;;;;0.55;0.55;;;;;;;3.91;80.97;99325.56;4828682;29;20099;-80
2022/02/28 07:10:59;;;;;;;0.00;0.00;;;;;;;3.93;80.62;99326.94;4828604;29;20266;-79
2022/02/28 07:13:25;;;;;;;0.00;0.00;;;;;;;4.04;80.30;99327.19;4827513;29;20117;-78
2022/02/28 07:15:52;;;;;;;0.00;0.00;;;;;;;4.14;80.21;99335.41;4845548;29;20045;-79
2022/02/28 07:18:18;;;;;;;0.00;0.00;;;;;;;4.15;79.27;99337.81;4844405;29;20057;-80
2022/02/28 07:20:43;;;;;;;0.00;0.00;;;;;;;4.18;79.27;99339.22;4843589;29;20479;-78
2022/02/28 07:23:09;;;;;;;0.00;0.00;;;;;;;4.19;79.41;99338.19;4828874;29;20065;-79
2022/02/28 07:25:35;;;;;;;0.00;0.00;;;;;;;4.27;78.53;99340.50;4845802;29;20426;-78
2022/02/28 07:28:01;;;;;;;0.00;0.00;;;;;;;4.32;78.69;99343.28;4844708;29;20104;-80
2022/02/28 07:30:27;;;;;;;0.00;0.00;;;;;;;4.36;78.52;99348.94;4845305;29;20510;-79
2022/02/28 07:32:52;;;;;;;0.00;0.00;;;;;;;4.30;78.82;99340.03;4845601;29;20029;-78
2022/02/28 07:35:19;;;;;;;0.00;0.00;;;;;;;4.38;78.59;99346.88;4844548;29;20512;-77
2022/02/28 07:37:44;;;;;;;0.00;0.00;;;;;;;4.41;79.13;99346.41;4844110;29;20022;-79
2022/02/28 07:40:10;;;;;;;0.00;0.00;;;;;;;4.38;78.95;99340.75;4827357;29;20062;-79
2022/02/28 07:42:37;;;;;;;0.00;0.00;;;;;;;4.47;78.46;99350.78;4844684;29;20490;-78
2022/02/28 07:45:04;;;;;;;0.10;0.10;;;;;;;4.53;78.68;99357.00;4827516;29;20441;-79
2022/02/28 07:47:30;;;;;;;0.00;0.00;;;;;;;4.58;78.42;99359.78;4827523;29;20058;-82
2022/02/28 07:49:55;;;;;;;0.00;0.00;;;;;;;4.59;77.69;99350.81;4843849;29;20045;-80
2022/02/28 07:52:21;;;;;;;0.00;0.00;;;;;;;4.71;78.19;99360.59;4841968;29;20509;-77
2022/02/28 07:54:46;;;;;;;0.00;0.00;;;;;;;4.85;77.71;99363.84;4827019;29;20045;-80
2022/02/28 07:57:12;;;;;;;0.00;0.00;;;;;;;4.91;77.15;99369.03;4827075;29;20047;-80
2022/02/28 07:59:38;;;;;;;0.00;0.00;;;;;;;4.84;76.83;99365.66;4838131;29;20037;-80
2022/02/28 08:02:03;;;;;;;0.00;0.00;;;;;;;4.85;76.35;99366.50;4853902;29;20040;-83
2022/02/28 08:04:36;;;;;;;0.00;0.00;;;;;;;4.79;76.77;99378.81;4876712;29;20049;-83
2022/02/28 08:07:02;;;;;;;0.00;0.00;;;;;;;4.75;77.29;99377.66;4845223;29;20038;-82
2022/02/28 08:09:29;;;;;;;0.00;0.00;;;;;;;4.75;77.13;99382.97;4854342;29;20041;-83
2022/02/28 08:11:57;;;;;;;0.00;0.00;;;;;;;4.75;77.52;99375.81;4821591;29;20061;-82
2022/02/28 08:14:26;;;;;;;0.00;0.00;;;;;;;4.79;76.79;99387.56;4831531;29;20063;-82
2022/02/28 08:16:52;;;;;;;0.00;0.00;;;;;;;4.76;77.36;99393.31;4831573;29;20070;-82
2022/02/28 08:19:20;;;;;;;0.00;0.00;;;;;;;4.76;77.65;99392.50;4831639;29;20042;-82
2022/02/28 08:21:46;;;;;;;;;;;;;;;4.71;77.88;99392.38;4845729;29;20089;-82
2022/02/28 08:24:11;;;;;;;0.00;0.00;;;;;;;4.73;78.33;99385.81;4844609;29;19962;-81
2022/02/28 08:26:37;;;;;;;0.00;0.00;;;;;;;4.80;77.96;99391.03;4847468;29;20405;-80
2022/02/28 08:29:03;;;;;;;0.00;0.00;;;;;;;4.70;77.42;99388.13;4836888;29;20030;-80
2022/02/28 08:31:28;;;;;;;0.00;0.00;;;;;;;4.81;77.93;99395.28;4825966;29;20038;-80
2022/02/28 08:33:54;;;;;;;0.00;0.00;;;;;;;4.86;77.45;99392.75;4826230;29;20387;-81
2022/02/28 08:36:19;;;;;;;0.00;0.00;;;;;;;4.89;77.06;99386.19;4825895;29;20036;-81
2022/02/28 08:38:45;;;;;;;0.20;0.20;;;;;;;4.87;77.03;99393.56;4825702;29;20086;-79
2022/02/28 08:41:10;;;;;;;0.10;0.10;;;;;;;4.98;77.21;99390.13;4857219;29;20042;-80
2022/02/28 08:43:36;;;;;;;0.00;0.00;;;;;;;5.07;76.74;99394.03;4825353;29;20054;-79
2022/02/28 08:46:02;;;;;;;0.00;0.00;;;;;;;5.07;76.55;99393.22;4840742;29;20101;-79
2022/02/28 08:48:28;;;;;;;0.00;0.00;;;;;;;5.17;76.41;99398.75;4825596;29;20034;-80
2022/02/28 08:50:53;;;;;;;0.03;0.03;;;;;;;5.16;75.59;99401.63;4840426;29;20026;-79
2022/02/28 08:53:20;;;;;;;0.20;0.10;;;;;;;5.17;76.43;99398.75;4842016;29;20030;-79
2022/02/28 08:55:46;;;;;;;0.00;0.00;;;;;;;5.24;76.01;99402.09;4829396;29;20124;-79
2022/02/28 08:58:12;;;;;;;0.43;0.43;;;;;;;5.29;76.35;99401.41;4843580;29;20132;-80
2022/02/28 09:00:37;;;;;;;0.10;0.10;;;;;;;5.31;75.83;99395.84;4859896;29;20402;-79
2022/02/28 09:03:06;;;;;;;0.00;0.00;;;;;;;5.35;76.07;99397.03;4843456;29;20069;-79
2022/02/28 09:05:33;;;;;;;0.00;0.00;;;;;;;5.36;75.21;99398.59;4836066;29;20120;-79
2022/02/28 09:07:59;;;;;;;0.35;0.35;;;;;;;5.34;75.32;99398.06;4812346;29;20081;-79
2022/02/28 09:10:24;;;;;;;0.00;0.00;;;;;;;5.35;75.80;99397.81;4837732;29;20064;-79
2022/02/28 09:12:54;;;;;;;0.00;0.00;;;;;;;5.47;75.65;99403.09;4843110;29;20038;-82
2022/02/28 09:15:44;;;;;;;0.00;0.00;;;;;;;5.49;75.42;99405.53;4835950;29;20053;-81
2022/02/28 09:49:52;;;;;;;0.00;0.00;;;;;;;7.56;69.65;99401.84;5563143;23;21093;-81
2022/02/28 13:18:37;;;;;;;0.00;0.00;;;;;;;6.37;58.06;99450.53;5905627;23;20032;31
2022/02/28 13:27:48;;;;;;;0.00;0.00;;;;;;;6.28;56.87;99457.28;5488142;23;19931;-84
2022/02/28 13:30:25;;;;;;;0.00;0.00;;;;;;;6.14;55.83;99438.97;5507502;24;20070;-80
2022/02/28 13:32:58;;;;;;;0.00;0.00;;;;;;;6.27;57.43;99461.75;5035976;24;20046;-81
2022/02/28 14:50:15;;;;;;;0.00;0.00;;;;;;;4.48;60.81;99519.25;5518033;23;20061;-81
2022/02/28 14:53:22;;;;;;;0.00;0.00;;;;;;;4.42;60.69;99514.03;4838951;29;20175;-82
2022/02/28 15:52:20;;;;;;;0.00;0.00;;;;;;;3.66;64.08;99591.81;4834034;29;20085;-82
2022/02/28 15:55:04;;;;;;;0.00;0.00;;;;;;;3.58;64.32;99597.38;4814703;29;20045;-81
2022/02/28 15:58:44;;;;;;;0.10;0.10;;;;;;;3.59;64.14;99606.94;4802975;29;20029;-81
2022/02/28 16:01:09;;;;;;;0.00;0.00;;;;;;;3.50;63.91;99613.50;5371469;24;20085;-80
2022/02/28 16:03:36;;;;;;;0.43;0.43;;;;;;;3.49;64.69;99610.06;4824621;29;20065;-78
2022/02/28 16:06:02;;;;;;;0.05;0.05;;;;;;;3.55;64.91;99615.50;4820091;29;20049;-81
2022/02/28 16:08:27;;;;;;;0.00;0.00;;;;;;;3.54;64.53;99614.69;4831978;29;20494;-77
2022/02/28 16:10:53;;;;;;;0.00;0.00;;;;;;;3.53;64.98;99624.47;4844562;29;20464;-81
2022/02/28 16:13:49;;;;;;;0.05;0.05;;;;;;;3.54;64.54;99630.56;4835515;29;20130;-81
2022/02/28 16:16:36;;;;;;;0.00;0.00;;;;;;;3.50;64.72;99630.19;4834995;29;20025;-83
2022/02/28 16:19:06;;;;;;;3.33;1.15;;;;;;;3.45;64.22;99627.34;4844493;29;20037;-78
2022/02/28 16:21:32;;;;;;;0.43;0.43;;;;;;;3.40;63.52;99640.41;4814615;29;20418;-79
2022/02/28 16:23:58;;;;;;;0.00;0.00;;;;;;;3.38;63.29;99639.00;4827469;29;20034;-79
2022/02/28 16:26:24;;;;;;;0.00;0.00;;;;;;;3.31;63.42;99644.34;4821578;29;20046;-78
2022/02/28 16:28:50;;;;;;;0.00;0.00;;;;;;;3.35;62.45;99648.19;4809666;29;20042;-77
2022/02/28 16:31:16;;;;;;;0.00;0.00;;;;;;;3.30;62.86;99663.88;4826934;29;20140;-77
2022/02/28 16:33:42;;;;;;;0.65;0.65;;;;;;;3.28;63.04;99666.72;4828862;29;20042;-79
2022/02/28 16:36:09;;;;;;;0.10;0.10;;;;;;;3.28;63.24;99660.63;4825760;29;20607;-77
2022/02/28 16:38:34;;;;;;;0.00;0.00;;;;;;;3.21;63.29;99671.25;4826134;29;20033;-79
2022/02/28 16:41:00;;;;;;;0.25;0.25;;;;;;;3.15;63.26;99672.91;4841712;29;20141;-77
2022/02/28 16:43:26;;;;;;;0.00;0.00;;;;;;;3.14;63.48;99660.72;4824769;29;20471;-77
2022/02/28 16:45:54;;;;;;;0.05;0.05;;;;;;;3.08;63.13;99677.41;4826796;29;20582;-78
2022/02/28 16:48:19;;;;;;;0.05;0.05;;;;;;;3.13;63.67;99661.72;4825951;29;20486;-77
2022/02/28 16:50:45;;;;;;;0.00;0.00;;;;;;;3.03;63.66;99670.09;4827229;29;20045;-78
2022/02/28 16:53:12;;;;;;;0.52;0.52;;;;;;;3.04;63.93;99692.88;4809096;29;20111;-78
2022/02/28 16:55:38;;;;;;;0.00;0.00;;;;;;;3.06;63.90;99691.84;4825757;29;20076;-76
2022/02/28 16:58:03;;;;;;;0.00;0.00;;;;;;;3.02;64.34;99681.69;4837917;29;20057;-76
2022/02/28 17:00:29;;;;;;;0.00;0.00;;;;;;;3.06;63.92;99691.84;4809595;29;20477;-79
2022/02/28 17:02:54;;;;;;;0.00;0.00;;;;;;;3.06;64.79;99683.94;4808358;29;20522;-76
2022/02/28 17:05:21;;;;;;;0.00;0.00;;;;;;;3.03;64.00;99693.09;4826095;29;20046;-78
2022/02/28 17:07:46;;;;;;;0.00;0.00;;;;;;;3.01;63.87;99680.06;4810199;29;20483;-77
2022/02/28 17:10:16;;;;;;;0.00;0.00;;;;;;;3.00;63.94;99694.31;4810153;29;20067;-80
2022/02/28 17:12:42;;;;;;;0.00;0.00;;;;;;;3.13;63.62;99697.94;4809779;29;20042;-77
2022/02/28 17:15:08;;;;;;;0.00;0.00;;;;;;;3.11;64.45;99700.75;4808306;29;20103;-77
2022/02/28 17:17:34;;;;;;;0.00;0.00;;;;;;;3.07;63.27;99712.78;4826539;29;20038;-78
2022/02/28 17:20:00;;;;;;;0.13;0.13;;;;;;;3.09;63.68;99704.63;4808966;29;20198;-78
2022/02/28 17:22:26;;;;;;;0.10;0.10;;;;;;;3.02;63.62;99694.91;4808194;29;20042;-78
2022/02/28 17:24:52;;;;;;;0.00;0.00;;;;;;;3.11;63.90;99700.75;4808920;29;20076;-79
2022/02/28 17:27:18;;;;;;;0.00;0.00;;;;;;;3.10;63.96;99693.88;4808695;29;20039;-79
2022/02/28 17:29:43;;;;;;;0.00;0.00;;;;;;;3.13;63.66;99716.44;4808572;29;20114;-79
2022/02/28 17:32:09;;;;;;;0.25;0.25;;;;;;;3.11;63.64;99711.31;4809828;29;20031;-79
2022/02/28 17:34:34;;;;;;;0.00;0.00;;;;;;;3.09;63.55;99708.09;4809289;29;20042;-79
2022/02/28 17:37:00;;;;;;;0.00;0.00;;;;;;;3.11;63.29;99710.53;4824413;29;20034;-81
2022/02/28 17:39:30;;;;;;;0.00;0.00;;;;;;;2.98;63.04;99701.66;4827549;29;20045;-81
2022/02/28 17:41:56;;;;;;;0.98;0.88;;;;;;;2.94;63.54;99710.19;4807597;29;20503;-79
2022/02/28 17:44:21;;;;;;;0.00;0.00;;;;;;;3.15;63.35;99711.72;4807632;29;20041;-79
2022/02/28 17:46:47;;;;;;;0.35;0.35;;;;;;;3.18;62.65;99712.13;4808012;29;20043;-79
2022/02/28 17:49:13;;;;;;;0.00;0.00;;;;;;;3.07;63.43;99717.28;4824350;29;20030;-79
2022/02/28 17:51:40;;;;;;;0.00;0.00;;;;;;;3.00;62.87;99707.53;4808288;29;20117;-78
2022/02/28 17:54:24;;;;;;;0.00;0.00;;;;;;;2.97;63.22;99700.00;4810641;29;20461;-82
2022/02/28 17:57:11;;;;;;;0.00;0.00;;;;;;;3.00;63.09;99717.28;4824408;29;20034;-82
2022/02/28 17:59:38;;;;;;;0.00;0.00;;;;;;;3.02;63.22;99718.69;4836079;29;20037;-80
2022/02/28 18:02:04;;;;;;;0.00;0.00;;;;;;;3.02;63.68;99723.19;4826101;29;20140;-79
2022/02/28 18:04:50;;;;;;;0.13;0.13;;;;;;;2.95;63.28;99725.81;4807751;29;20086;-80
2022/02/28 18:53:38;;;;;;;0.00;0.00;;;;;;;3.12;62.33;99802.81;5890829;23;20024;31
2022/02/28 18:56:27;;;;;;;0.00;0.00;;;;;;;3.12;62.53;99807.31;4815121;29;20046;-83
2022/02/28 19:02:46;;;;;;;0.00;0.00;;;;;;;2.95;62.17;99788.44;5392714;24;20042;-84
2022/02/28 19:05:46;;;;;;;0.00;0.00;;;;;;;3.00;61.82;99797.38;4856913;29;20037;-81
2022/02/28 19:08:24;;;;;;;0.47;0.47;;;;;;;2.86;61.97;99783.38;5260635;24;20028;-81
2022/02/28 19:16:37;;;;;;;0.00;0.00;;;;;;;2.88;61.99;99794.56;5285950;24;20028;-81
2022/02/28 19:21:46;;;;;;;0.00;0.00;;;;;;;2.74;62.53;99784.22;4914673;24;20070;-82
2022/02/28 19:24:13;;;;;;;0.00;0.00;;;;;;;2.82;62.78;99789.28;4819306;29;20026;-80
2022/02/28 19:26:41;;;;;;;0.00;0.00;;;;;;;2.80;62.08;99797.41;4822825;29;20086;-81
2022/02/28 19:29:09;;;;;;;0.00;0.00;;;;;;;2.81;61.81;99803.53;4842053;29;20029;-81
2022/02/28 19:32:31;;;;;;;0.00;0.00;;;;;;;2.81;62.64;99804.31;4825767;29;20094;-82
2022/02/28 19:35:05;;;;;;;0.00;0.00;;;;;;;2.72;62.19;99805.53;4835102;29;20046;-83
2022/02/28 19:37:31;;;;;;;0.00;0.00;;;;;;;2.73;62.45;99807.19;4826663;29;20104;-80
2022/02/28 19:40:06;;;;;;;0.00;0.00;;;;;;;2.73;63.04;99801.88;4823830;29;20042;-82
2022/02/28 19:42:33;;;;;;;0.00;0.00;;;;;;;2.69;62.98;99819.97;4809843;29;20582;-79
2022/02/28 19:44:59;;;;;;;0.00;0.00;;;;;;;2.67;62.86;99821.19;4816559;29;20078;-81
2022/02/28 19:50:32;;;;;;;0.00;0.00;;;;;;;2.68;63.35;99826.28;4837659;29;20053;-81
2022/02/28 19:52:58;;;;;;;0.00;0.00;;;;;;;2.69;62.86;99827.91;4806134;29;20058;-80
2022/02/28 19:55:24;;;;;;;0.00;0.00;;;;;;;2.68;63.52;99828.91;4826274;29;20030;-81
2022/02/28 19:57:49;;;;;;;0.38;0.38;;;;;;;2.68;63.33;99821.00;4821703;29;20041;-77
2022/02/28 20:00:15;;;;;;;0.65;0.65;;;;;;;2.68;63.33;99828.91;4823996;29;20431;-78
2022/02/28 20:02:41;;;;;;;0.00;0.00;;;;;;;2.76;63.06;99827.91;4848362;29;20044;-81
2022/02/28 20:05:17;;;;;;;0.80;0.80;;;;;;;2.78;63.04;99820.56;4821494;29;20038;-81
2022/02/28 20:07:44;;;;;;;0.08;0.08;;;;;;;2.75;62.88;99831.56;4828167;29;20065;-77
2022/02/28 20:10:10;;;;;;;0.00;0.00;;;;;;;2.76;62.72;99833.19;4827562;29;20034;-77
2022/02/28 20:12:36;;;;;;;1.60;1.05;;;;;;;2.75;63.11;99825.44;4839622;29;20456;-78
2022/02/28 20:15:02;;;;;;;0.00;0.00;;;;;;;2.67;63.27;99829.94;4828999;29;20109;-76
2022/02/28 20:17:27;;;;;;;0.00;0.00;;;;;;;2.61;63.52;99830.75;4812625;29;20121;-76
2022/02/28 20:19:53;;;;;;;0.00;0.00;;;;;;;2.56;63.50;99828.75;4808559;29;20459;-75
2022/02/28 20:22:18;;;;;;;0.00;0.00;;;;;;;2.55;62.89;99842.94;4831526;29;20536;-76
2022/02/28 20:24:44;;;;;;;0.00;0.00;;;;;;;2.52;62.69;99829.34;4808712;29;20042;-75
2022/02/28 20:27:09;;;;;;;0.63;0.63;;;;;;;2.54;62.70;99827.31;4824790;29;20066;-75
2022/02/28 20:29:35;;;;;;;0.00;0.00;;;;;;;2.48;62.29;99823.66;4824443;29;20033;-77
2022/02/28 20:32:01;;;;;;;0.00;0.00;;;;;;;2.48;62.72;99823.66;4809064;29;20030;-76
2022/02/28 20:34:27;;;;;;;0.00;0.00;;;;;;;2.45;62.64;99836.44;4827783;29;20041;-80
2022/02/28 20:40:20;;;;;;;0.00;0.00;;;;;;;2.43;62.52;99828.75;5154859;24;20062;-81
2022/02/28 20:42:46;;;;;;;0.20;0.20;;;;;;;2.45;62.68;99828.53;4823023;29;20038;-78
2022/02/28 20:45:12;;;;;;;0.00;0.00;;;;;;;2.45;62.10;99826.69;4828772;29;20032;-80
2022/02/28 20:53:22;;;;;;;0.00;0.00;;;;;;;2.51;61.97;99817.16;5419081;23;20125;-81
2022/02/28 20:55:47;;;;;;;0.00;0.00;;;;;;;2.53;62.38;99815.13;4813426;29;20050;-78
2022/02/28 20:58:13;;;;;;;0.00;0.00;;;;;;;2.55;62.50;99815.72;4808028;29;20022;-79
2022/02/28 21:00:39;;;;;;;0.00;0.00;;;;;;;2.52;62.45;99813.50;4815317;29;20079;-78
2022/02/28 21:03:05;;;;;;;0.00;0.00;;;;;;;2.54;62.62;99806.19;4836572;29;20038;-80
2022/02/28 21:05:30;;;;;;;0.00;0.00;;;;;;;2.51;62.83;99812.66;4815640;29;20105;-79
2022/02/28 21:07:56;;;;;;;0.00;0.00;;;;;;;2.49;62.44;99824.44;4818364;29;20022;-80
2022/02/28 21:10:21;;;;;;;0.00;0.00;;;;;;;2.48;62.27;99815.72;4819897;29;20026;-81
2022/02/28 21:13:02;;;;;;;0.00;0.00;;;;;;;2.47;62.27;99824.66;4830499;29;20057;-83
2022/02/28 21:15:27;;;;;;;0.00;0.00;;;;;;;2.46;62.97;99825.69;4818051;29;20577;-77
2022/02/28 21:17:52;;;;;;;0.00;0.00;;;;;;;2.43;62.35;99818.19;4823618;29;20029;-76
2022/02/28 21:20:19;;;;;;;0.00;0.00;;;;;;;2.38;62.22;99828.50;4816489;29;20038;-78
2022/02/28 21:22:44;;;;;;;0.00;0.00;;;;;;;2.35;62.00;99813.88;4822230;29;20061;-77
2022/02/28 21:25:10;;;;;;;0.00;0.00;;;;;;;2.44;62.31;99817.16;4818057;29;20061;-79
2022/02/28 21:27:35;;;;;;;0.00;0.00;;;;;;;2.45;62.40;99807.41;4827011;29;20026;-79
2022/02/28 21:30:01;;;;;;;0.10;0.10;;;;;;;2.43;62.26;99804.16;4824861;29;20045;-78
2022/02/28 21:32:27;;;;;;;0.00;0.00;;;;;;;2.48;62.38;99802.53;4826857;29;20433;-77
2022/02/28 21:34:52;;;;;;;0.00;0.00;;;;;;;2.47;62.38;99816.75;4838770;29;20038;-78
2022/02/28 21:37:18;;;;;;;0.00;0.00;;;;;;;2.44;62.82;99811.06;4822173;29;20041;-78
2022/02/28 21:39:43;;;;;;;2.20;1.45;;;;;;;2.41;62.55;99814.91;4827733;29;20033;-78
2022/02/28 21:42:09;;;;;;;0.03;0.03;;;;;;;2.42;63.10;99807.81;4828123;29;20029;-78
2022/02/28 21:44:34;;;;;;;0.00;0.00;;;;;;;2.41;63.00;99814.91;4827856;29;20044;-79
2022/02/28 21:47:00;;;;;;;0.00;0.00;;;;;;;2.43;62.66;99820.00;4834360;29;20567;-78
2022/02/28 21:49:25;;;;;;;0.00;0.00;;;;;;;2.42;63.06;99824.47;4825037;29;20053;-77
2022/02/28 21:51:51;;;;;;;0.00;0.00;;;;;;;2.41;63.51;99833.41;4827611;29;20483;-79
2022/02/28 21:54:16;;;;;;;0.00;0.00;;;;;;;2.39;63.10;99835.41;4826154;29;20448;-79
2022/02/28 21:56:42;;;;;;;0.00;0.00;;;;;;;2.33;63.29;99837.06;4825317;29;20521;-77
2022/02/28 21:59:07;;;;;;;0.00;0.00;;;;;;;2.33;62.68;99852.06;4842824;29;20046;-77
2022/02/28 22:01:33;;;;;;;0.00;0.00;;;;;;;2.35;63.04;99844.78;4826732;29;20029;-77
2022/02/28 22:03:58;;;;;;;0.00;0.00;;;;;;;2.30;63.59;99834.00;4843170;29;20037;-77
2022/02/28 22:06:24;;;;;;;0.00;0.00;;;;;;;2.34;63.31;99838.66;4843038;29;20045;-77
2022/02/28 22:08:49;;;;;;;0.00;0.00;;;;;;;2.30;63.05;99837.44;4826738;29;20121;-76
2022/02/28 22:11:14;;;;;;;0.00;0.00;;;;;;;2.28;63.50;99843.94;4841951;29;20070;-76
2022/02/28 22:13:40;;;;;;;0.00;0.00;;;;;;;2.31;63.50;99838.28;4843169;29;20034;-77
2022/02/28 22:16:05;;;;;;;0.00;0.00;;;;;;;2.30;64.11;99834.81;4826612;29;20102;-77
2022/02/28 22:18:31;;;;;;;0.00;0.00;;;;;;;2.26;63.63;99849.44;4827555;29;20030;-77
2022/02/28 22:20:56;;;;;;;0.00;0.00;;;;;;;2.19;63.51;99835.41;4820524;29;20073;-77
2022/02/28 22:23:23;;;;;;;0.00;0.00;;;;;;;2.18;64.14;99833.78;4829446;29;20037;-79
2022/02/28 22:25:52;;;;;;;5.47;2.55;;;;;;;2.15;64.81;99832.38;4810184;29;20632;-77
2022/02/28 22:28:18;;;;;;;0.00;0.00;;;;;;;2.13;64.62;99828.31;4844272;29;20502;-78
2022/02/28 22:30:43;;;;;;;0.00;0.00;;;;;;;2.10;64.67;99849.81;4827656;29;20034;-79
2022/02/28 22:33:09;;;;;;;0.00;0.00;;;;;;;2.03;65.16;99840.06;4827254;29;20116;-78
2022/02/28 22:35:34;;;;;;;0.00;0.00;;;;;;;2.05;65.83;99838.03;4827070;29;20406;-79
2022/02/28 22:37:59;;;;;;;0.00;0.00;;;;;;;2.01;65.12;99843.91;4827169;29;20384;-78
2022/02/28 22:40:25;;;;;;;0.00;0.00;;;;;;;1.95;65.68;99840.22;4827284;29;20030;-78
2022/02/28 22:42:50;;;;;;;0.00;0.00;;;;;;;1.96;66.32;99846.34;4839726;29;20090;-78
2022/02/28 22:45:16;;;;;;;0.00;0.00;;;;;;;2.12;65.89;99850.44;4827059;29;20026;-78
2022/02/28 22:47:42;;;;;;;0.00;0.00;;;;;;;2.09;65.78;99854.28;4819246;29;20049;-78
2022/02/28 22:50:09;;;;;;;0.00;0.00;;;;;;;2.06;65.72;99858.13;4840506;29;20494;-78
2022/02/28 22:52:36;;;;;;;0.00;0.00;;;;;;;2.10;65.94;99855.91;4814596;29;20038;-78
2022/02/28 22:55:04;;;;;;;0.00;0.00;;;;;;;2.11;65.58;99852.22;4815566;29;20054;-76
2022/02/28 22:57:30;;;;;;;0.00;0.00;;;;;;;2.14;65.60;99853.69;4828707;29;20038;-77
2022/02/28 22:59:55;;;;;;;0.00;0.00;;;;;;;2.11;65.39;99857.50;4840576;29;20038;-78
2022/02/28 23:05:06;;;;;;;0.00;0.00;;;;;;;2.16;65.30;99867.47;4825210;29;20172;-78
2022/02/28 23:07:31;;;;;;;0.00;0.00;;;;;;;2.12;65.29;99853.88;4818080;29;20062;-78
2022/02/28 23:20:47;;;;;;;0.00;0.00;;;;;;;2.00;65.57;99848.38;4825551;29;20575;-78
2022/02/28 23:23:13;;;;;;;0.00;0.00;;;;;;;2.07;65.32;99854.47;4808167;29;20038;-78
2022/02/28 23:25:40;;;;;;;0.00;0.00;;;;;;;2.10;64.62;99852.44;4808890;29;20030;-77
2022/02/28 23:28:05;;;;;;;0.00;0.00;;;;;;;2.11;64.94;99849.59;4842061;29;20116;-77
2022/02/28 23:30:31;;;;;;;0.00;0.00;;;;;;;2.05;64.54;99855.66;4823010;29;20072;-77
2022/02/28 23:32:56;;;;;;;0.00;0.00;;;;;;;2.10;64.96;99853.28;4825152;29;20066;-77
2022/02/28 23:35:22;;;;;;;0.00;0.00;;;;;;;2.03;65.17;99850.59;4829525;29;20033;-78
2022/02/28 23:37:47;;;;;;;0.00;0.00;;;;;;;2.04;64.72;99854.88;4828649;29;20517;-77
2022/02/28 23:40:14;;;;;;;0.00;0.00;;;;;;;2.02;64.76;99848.97;4828759;29;20067;-78
2022/02/28 23:42:39;;;;;;;0.00;0.00;;;;;;;2.13;64.91;99852.06;4844722;29;20054;-78
2022/02/28 23:45:07;;;;;;;0.00;0.00;;;;;;;2.12;64.72;99845.94;4829120;29;20034;-77
2022/02/28 23:47:33;;;;;;;0.00;0.00;;;;;;;2.13;64.82;99849.41;4828957;29;20053;-78
2022/02/28 23:49:58;;;;;;;0.00;0.00;;;;;;;2.07;64.50;99849.19;4829653;29;20109;-78
2022/02/28 23:52:24;;;;;;;0.38;0.38;;;;;;;2.04;64.93;99851.44;4828950;29;20438;-78
2022/02/28 23:54:49;;;;;;;0.00;0.00;;;;;;;1.98;64.68;99847.75;4829470;29;20545;-78
2022/02/28 23:57:15;;;;;;;0.00;0.00;;;;;;;1.93;64.54;99850.19;4824102;29;20490;-77
2022/02/28 23:59:40;;;;;;;0.00;0.00;;;;;;;1.93;65.58;99847.56;4821763;29;20108;-78
